sensor_id;sensor_type;location;lat;lon;timestamp;pressure;altitude;pressure_sealevel;temperature;humidity
8051;BME280;4068;42.158;24.732;2024-02-26T00:02:16;99313.28;;;9.14;100.00
8051;BME280;4068;42.158;24.732;2024-02-26T00:04:42;99319.16;;;9.06;100.00
8051;BME280;4068;42.158;24.732;2024-02-26T00:07:07;99292.34;;;8.88;100.00
8051;BME280;4068;42.158;24.732;2024-02-26T00:09:33;99314.97;;;9.04;100.00
8051;BME280;4068;42.158;24.732;2024-02-26T00:12:01;99304.47;;;9.13;100.00
8051;BME280;4068;42.158;24.732;2024-02-26T00:14:31;99315.19;;;9.23;100.00
8051;BME280;4068;42.158;24.732;2024-02-26T00:16:57;99303.78;;;9.11;100.00
8051;BME280;4068;42.158;24.732;2024-02-26T00:19:22;99305.22;;;9.27;100.00
8051;BME280;4068;42.158;24.732;2024-02-26T00:21:48;99297.38;;;9.48;100.00
8051;BME280;4068;42.158;24.732;2024-02-26T00:24:13;99275.59;;;9.44;100.00
8051;BME280;4068;42.158;24.732;2024-02-26T00:26:39;99278.25;;;9.44;100.00
8051;BME280;4068;42.158;24.732;2024-02-26T00:29:05;99292.94;;;9.26;100.00
8051;BME280;4068;42.158;24.732;2024-02-26T00:31:30;99307.75;;;9.28;100.00
8051;BME280;4068;42.158;24.732;2024-02-26T00:33:56;99316.03;;;9.35;100.00
8051;BME280;4068;42.158;24.732;2024-02-26T00:36:21;99314.72;;;9.18;100.00
8051;BME280;4068;42.158;24.732;2024-02-26T00:38:47;99295.25;;;9.08;100.00
8051;BME280;4068;42.158;24.732;2024-02-26T00:41:20;99291.75;;;9.07;100.00
8051;BME280;4068;42.158;24.732;2024-02-26T00:43:46;99307.75;;;9.28;100.00
8051;BME280;4068;42.158;24.732;2024-02-26T00:46:11;99314.59;;;9.20;100.00
8051;BME280;4068;42.158;24.732;2024-02-26T00:48:37;99328.91;;;9.28;100.00
8051;BME280;4068;42.158;24.732;2024-02-26T00:51:03;99312.19;;;9.39;100.00
8051;BME280;4068;42.158;24.732;2024-02-26T00:53:33;99257.34;;;9.30;100.00
8051;BME280;4068;42.158;24.732;2024-02-26T00:55:58;99259.00;;;9.54;100.00
8051;BME280;4068;42.158;24.732;2024-02-26T00:58:25;99258.47;;;9.60;100.00
8051;BME280;4068;42.158;24.732;2024-02-26T01:00:50;99251.19;;;9.41;100.00
8051;BME280;4068;42.158;24.732;2024-02-26T01:03:17;99212.38;;;9.19;100.00
8051;BME280;4068;42.158;24.732;2024-02-26T01:05:43;99210.13;;;9.58;100.00
8051;BME280;4068;42.158;24.732;2024-02-26T01:08:08;99212.16;;;9.54;100.00
8051;BME280;4068;42.158;24.732;2024-02-26T01:10:34;99233.19;;;9.67;100.00
8051;BME280;4068;42.158;24.732;2024-02-26T01:12:59;99242.09;;;9.66;100.00
8051;BME280;4068;42.158;24.732;2024-02-26T01:15:25;99244.84;;;9.76;100.00
8051;BME280;4068;42.158;24.732;2024-02-26T01:17:50;99232.16;;;9.91;100.00
8051;BME280;4068;42.158;24.732;2024-02-26T01:20:16;99218.69;;;9.82;100.00
8051;BME280;4068;42.158;24.732;2024-02-26T01:22:43;99233.72;;;9.93;100.00
8051;BME280;4068;42.158;24.732;2024-02-26T01:25:08;99229.38;;;9.92;100.00
8051;BME280;4068;42.158;24.732;2024-02-26T01:27:35;99253.03;;;10.05;100.00
8051;BME280;4068;42.158;24.732;2024-02-26T01:30:03;99249.34;;;9.96;100.00
8051;BME280;4068;42.158;24.732;2024-02-26T01:32:29;99233.63;;;9.83;100.00
8051;BME280;4068;42.158;24.732;2024-02-26T01:34:55;99273.75;;;10.00;100.00
8051;BME280;4068;42.158;24.732;2024-02-26T01:37:21;99265.13;;;9.98;100.00
8051;BME280;4068;42.158;24.732;2024-02-26T01:39:46;99261.28;;;9.91;100.00
8051;BME280;4068;42.158;24.732;2024-02-26T01:42:12;99250.69;;;9.91;100.00
8051;BME280;4068;42.158;24.732;2024-02-26T01:44:37;99252.81;;;9.97;100.00
8051;BME280;4068;42.158;24.732;2024-02-26T01:47:04;99245.66;;;9.88;100.00
8051;BME280;4068;42.158;24.732;2024-02-26T01:49:30;99268.50;;;9.89;100.00
8051;BME280;4068;42.158;24.732;2024-02-26T01:51:57;99262.97;;;9.80;100.00
8051;BME280;4068;42.158;24.732;2024-02-26T01:54:24;99229.47;;;9.70;100.00
8051;BME280;4068;42.158;24.732;2024-02-26T01:56:50;99251.47;;;9.70;100.00
8051;BME280;4068;42.158;24.732;2024-02-26T01:59:16;99244.50;;;9.69;100.00
8051;BME280;4068;42.158;24.732;2024-02-26T02:01:44;99257.38;;;9.74;100.00
8051;BME280;4068;42.158;24.732;2024-02-26T02:04:11;99228.09;;;9.43;100.00
8051;BME280;4068;42.158;24.732;2024-02-26T02:06:37;99254.59;;;9.75;100.00
8051;BME280;4068;42.158;24.732;2024-02-26T02:09:03;99252.09;;;9.62;100.00
8051;BME280;4068;42.158;24.732;2024-02-26T02:11:33;99220.41;;;9.28;100.00
8051;BME280;4068;42.158;24.732;2024-02-26T02:13:59;99226.06;;;9.35;100.00
8051;BME280;4068;42.158;24.732;2024-02-26T02:16:25;99246.03;;;9.39;100.00
8051;BME280;4068;42.158;24.732;2024-02-26T02:18:50;99218.28;;;9.11;100.00
8051;BME280;4068;42.158;24.732;2024-02-26T02:21:16;99246.88;;;9.28;100.00
8051;BME280;4068;42.158;24.732;2024-02-26T02:23:41;99239.69;;;9.08;100.00
8051;BME280;4068;42.158;24.732;2024-02-26T02:26:12;99213.38;;;8.84;100.00
8051;BME280;4068;42.158;24.732;2024-02-26T02:28:39;99241.13;;;9.01;100.00
8051;BME280;4068;42.158;24.732;2024-02-26T02:31:05;99241.97;;;9.01;100.00
8051;BME280;4068;42.158;24.732;2024-02-26T02:33:31;99245.81;;;8.97;100.00
8051;BME280;4068;42.158;24.732;2024-02-26T02:35:56;99253.75;;;8.97;100.00
8051;BME280;4068;42.158;24.732;2024-02-26T02:38:23;99252.44;;;9.03;100.00
8051;BME280;4068;42.158;24.732;2024-02-26T02:40:54;99220.19;;;8.75;100.00
8051;BME280;4068;42.158;24.732;2024-02-26T02:43:19;99234.03;;;8.90;100.00
8051;BME280;4068;42.158;24.732;2024-02-26T02:45:45;99244.25;;;8.94;100.00
8051;BME280;4068;42.158;24.732;2024-02-26T02:48:13;99228.25;;;8.85;100.00
8051;BME280;4068;42.158;24.732;2024-02-26T02:50:39;99242.47;;;8.84;100.00
8051;BME280;4068;42.158;24.732;2024-02-26T02:53:04;99252.91;;;8.74;100.00
8051;BME280;4068;42.158;24.732;2024-02-26T02:55:30;99253.16;;;8.71;100.00
8051;BME280;4068;42.158;24.732;2024-02-26T02:57:55;99245.69;;;8.64;100.00
8051;BME280;4068;42.158;24.732;2024-02-26T03:00:21;99255.41;;;8.64;100.00
8051;BME280;4068;42.158;24.732;2024-02-26T03:02:49;99257.19;;;8.52;100.00
8051;BME280;4068;42.158;24.732;2024-02-26T03:05:15;99236.09;;;8.39;100.00
8051;BME280;4068;42.158;24.732;2024-02-26T03:07:41;99266.53;;;8.45;100.00
8051;BME280;4068;42.158;24.732;2024-02-26T03:10:07;99242.09;;;8.30;100.00
8051;BME280;4068;42.158;24.732;2024-02-26T03:12:33;99249.56;;;8.36;100.00
8051;BME280;4068;42.158;24.732;2024-02-26T03:14:59;99258.00;;;8.41;100.00
8051;BME280;4068;42.158;24.732;2024-02-26T03:17:28;99260.44;;;8.44;100.00
8051;BME280;4068;42.158;24.732;2024-02-26T03:19:53;99271.75;;;8.46;100.00
8051;BME280;4068;42.158;24.732;2024-02-26T03:22:19;99266.53;;;8.45;100.00
8051;BME280;4068;42.158;24.732;2024-02-26T03:24:45;99262.53;;;8.39;100.00
8051;BME280;4068;42.158;24.732;2024-02-26T03:27:11;99265.72;;;8.44;100.00
8051;BME280;4068;42.158;24.732;2024-02-26T03:29:37;99254.59;;;8.39;100.00
8051;BME280;4068;42.158;24.732;2024-02-26T03:32:03;99268.00;;;8.49;100.00
8051;BME280;4068;42.158;24.732;2024-02-26T03:34:29;99252.38;;;8.46;100.00
8051;BME280;4068;42.158;24.732;2024-02-26T03:36:56;99255.66;;;8.50;100.00
8051;BME280;4068;42.158;24.732;2024-02-26T03:39:21;99258.03;;;8.53;100.00
8051;BME280;4068;42.158;24.732;2024-02-26T03:41:48;99266.94;;;8.52;100.00
8051;BME280;4068;42.158;24.732;2024-02-26T03:44:13;99240.81;;;8.36;100.00
8051;BME280;4068;42.158;24.732;2024-02-26T03:46:39;99261.06;;;8.59;100.00
8051;BME280;4068;42.158;24.732;2024-02-26T03:49:04;99258.78;;;8.66;100.00
8051;BME280;4068;42.158;24.732;2024-02-26T03:51:30;99239.69;;;8.62;100.00
8051;BME280;4068;42.158;24.732;2024-02-26T03:54:00;99251.72;;;8.67;100.00
8051;BME280;4068;42.158;24.732;2024-02-26T03:56:26;99262.50;;;8.75;100.00
8051;BME280;4068;42.158;24.732;2024-02-26T03:58:52;99260.47;;;8.78;100.00
8051;BME280;4068;42.158;24.732;2024-02-26T04:01:18;99237.06;;;8.74;100.00
8051;BME280;4068;42.158;24.732;2024-02-26T04:03:43;99266.25;;;8.84;100.00
8051;BME280;4068;42.158;24.732;2024-02-26T04:06:09;99268.88;;;8.95;100.00
8051;BME280;4068;42.158;24.732;2024-02-26T04:08:44;99279.97;;;9.00;100.00
8051;BME280;4068;42.158;24.732;2024-02-26T04:11:09;99272.84;;;9.12;100.00
8051;BME280;4068;42.158;24.732;2024-02-26T04:13:35;99236.44;;;9.04;100.00
8051;BME280;4068;42.158;24.732;2024-02-26T04:16:04;99266.47;;;9.26;100.00
8051;BME280;4068;42.158;24.732;2024-02-26T04:18:29;99265.41;;;9.28;100.00
8051;BME280;4068;42.158;24.732;2024-02-26T04:20:55;99267.66;;;9.33;100.00
8051;BME280;4068;42.158;24.732;2024-02-26T04:23:22;99263.13;;;9.24;100.00
8051;BME280;4068;42.158;24.732;2024-02-26T04:25:47;99243.16;;;9.20;100.00
8051;BME280;4068;42.158;24.732;2024-02-26T04:28:13;99251.09;;;9.31;100.00
8051;BME280;4068;42.158;24.732;2024-02-26T04:30:38;99269.94;;;9.38;100.00
8051;BME280;4068;42.158;24.732;2024-02-26T04:33:04;99255.44;;;9.32;100.00
8051;BME280;4068;42.158;24.732;2024-02-26T04:35:30;99244.72;;;9.22;100.00
8051;BME280;4068;42.158;24.732;2024-02-26T04:37:56;99261.91;;;9.39;100.00
8051;BME280;4068;42.158;24.732;2024-02-26T04:40:21;99260.22;;;9.38;100.00
8051;BME280;4068;42.158;24.732;2024-02-26T04:42:47;99275.16;;;9.39;100.00
8051;BME280;4068;42.158;24.732;2024-02-26T04:45:12;99256.72;;;9.38;100.00
8051;BME280;4068;42.158;24.732;2024-02-26T04:47:38;99255.75;;;9.39;100.00
8051;BME280;4068;42.158;24.732;2024-02-26T04:50:04;99281.75;;;9.45;100.00
8051;BME280;4068;42.158;24.732;2024-02-26T04:52:30;99274.38;;;9.48;100.00
8051;BME280;4068;42.158;24.732;2024-02-26T04:54:55;99270.91;;;9.48;100.00
8051;BME280;4068;42.158;24.732;2024-02-26T04:57:21;99273.19;;;9.53;100.00
8051;BME280;4068;42.158;24.732;2024-02-26T04:59:47;99272.34;;;9.52;100.00
8051;BME280;4068;42.158;24.732;2024-02-26T05:02:13;99278.84;;;9.48;100.00
8051;BME280;4068;42.158;24.732;2024-02-26T05:04:38;99284.41;;;9.45;100.00
8051;BME280;4068;42.158;24.732;2024-02-26T05:07:04;99286.19;;;9.44;100.00
8051;BME280;4068;42.158;24.732;2024-02-26T05:09:29;99286.31;;;9.43;100.00
8051;BME280;4068;42.158;24.732;2024-02-26T05:11:55;99275.03;;;9.41;100.00
8051;BME280;4068;42.158;24.732;2024-02-26T05:14:20;99271.25;;;9.43;100.00
8051;BME280;4068;42.158;24.732;2024-02-26T05:16:47;99273.19;;;9.41;100.00
8051;BME280;4068;42.158;24.732;2024-02-26T05:19:12;99287.63;;;9.48;100.00
8051;BME280;4068;42.158;24.732;2024-02-26T05:21:38;99267.56;;;9.35;100.00
8051;BME280;4068;42.158;24.732;2024-02-26T05:24:03;99289.06;;;9.53;100.00
8051;BME280;4068;42.158;24.732;2024-02-26T05:26:29;99284.97;;;9.48;100.00
8051;BME280;4068;42.158;24.732;2024-02-26T05:28:54;99284.47;;;9.55;100.00
8051;BME280;4068;42.158;24.732;2024-02-26T05:31:25;99274.91;;;9.42;100.00
8051;BME280;4068;42.158;24.732;2024-02-26T05:33:50;99301.78;;;9.70;100.00
8051;BME280;4068;42.158;24.732;2024-02-26T05:36:22;99289.84;;;9.76;100.00
8051;BME280;4068;42.158;24.732;2024-02-26T05:38:48;99303.56;;;9.81;100.00
8051;BME280;4068;42.158;24.732;2024-02-26T05:41:17;99311.50;;;9.92;100.00
8051;BME280;4068;42.158;24.732;2024-02-26T05:43:51;99305.94;;;9.95;100.00
8051;BME280;4068;42.158;24.732;2024-02-26T05:46:18;99277.78;;;9.83;100.00
8051;BME280;4068;42.158;24.732;2024-02-26T05:48:48;99294.72;;;9.92;100.00
8051;BME280;4068;42.158;24.732;2024-02-26T05:51:13;99310.38;;;10.06;100.00
8051;BME280;4068;42.158;24.732;2024-02-26T05:53:40;99310.81;;;10.11;100.00
8051;BME280;4068;42.158;24.732;2024-02-26T05:56:06;99317.75;;;10.24;100.00
8051;BME280;4068;42.158;24.732;2024-02-26T05:58:31;99320.50;;;10.33;100.00
8051;BME280;4068;42.158;24.732;2024-02-26T06:00:57;99331.44;;;10.40;100.00
8051;BME280;4068;42.158;24.732;2024-02-26T06:03:22;99339.88;;;10.45;100.00
8051;BME280;4068;42.158;24.732;2024-02-26T06:05:48;99340.38;;;10.60;100.00
8051;BME280;4068;42.158;24.732;2024-02-26T06:08:13;99343.88;;;10.61;100.00
8051;BME280;4068;42.158;24.732;2024-02-26T06:10:39;99342.59;;;10.55;100.00
8051;BME280;4068;42.158;24.732;2024-02-26T06:13:05;99343.88;;;10.61;100.00
8051;BME280;4068;42.158;24.732;2024-02-26T06:15:30;99344.50;;;10.53;100.00
8051;BME280;4068;42.158;24.732;2024-02-26T06:17:56;99361.22;;;10.65;100.00
8051;BME280;4068;42.158;24.732;2024-02-26T06:20:21;99359.34;;;10.77;100.00
8051;BME280;4068;42.158;24.732;2024-02-26T06:22:47;99362.75;;;10.88;100.00
8051;BME280;4068;42.158;24.732;2024-02-26T06:25:12;99365.06;;;10.93;100.00
8051;BME280;4068;42.158;24.732;2024-02-26T06:27:37;99361.47;;;11.04;100.00
8051;BME280;4068;42.158;24.732;2024-02-26T06:30:03;99361.38;;;11.15;100.00
8051;BME280;4068;42.158;24.732;2024-02-26T06:32:29;99365.78;;;11.26;100.00
8051;BME280;4068;42.158;24.732;2024-02-26T06:34:55;99362.34;;;11.14;100.00
8051;BME280;4068;42.158;24.732;2024-02-26T06:37:21;99378.59;;;11.21;100.00
8051;BME280;4068;42.158;24.732;2024-02-26T06:39:46;99379.31;;;11.23;100.00
8051;BME280;4068;42.158;24.732;2024-02-26T06:42:12;99352.47;;;11.16;100.00
8051;BME280;4068;42.158;24.732;2024-02-26T06:44:37;99385.72;;;11.42;100.00
8051;BME280;4068;42.158;24.732;2024-02-26T06:47:03;99356.44;;;11.32;100.00
8051;BME280;4068;42.158;24.732;2024-02-26T06:49:29;99360.34;;;11.28;100.00
8051;BME280;4068;42.158;24.732;2024-02-26T06:51:55;99369.50;;;11.45;100.00
8051;BME280;4068;42.158;24.732;2024-02-26T06:54:20;99370.78;;;11.50;100.00
8051;BME280;4068;42.158;24.732;2024-02-26T06:56:46;99379.31;;;11.54;100.00
8051;BME280;4068;42.158;24.732;2024-02-26T06:59:11;99394.28;;;11.55;100.00
8051;BME280;4068;42.158;24.732;2024-02-26T07:01:37;99393.41;;;11.45;100.00
8051;BME280;4068;42.158;24.732;2024-02-26T07:04:02;99392.63;;;11.33;100.00
8051;BME280;4068;42.158;24.732;2024-02-26T07:06:28;99363.47;;;11.12;100.00
8051;BME280;4068;42.158;24.732;2024-02-26T07:08:53;99353.88;;;11.20;100.00
8051;BME280;4068;42.158;24.732;2024-02-26T07:11:19;99392.16;;;11.49;100.00
8051;BME280;4068;42.158;24.732;2024-02-26T07:13:45;99369.06;;;11.39;100.00
8051;BME280;4068;42.158;24.732;2024-02-26T07:16:11;99392.72;;;11.52;100.00
8051;BME280;4068;42.158;24.732;2024-02-26T07:18:37;99374.84;;;11.54;100.00
8051;BME280;4068;42.158;24.732;2024-02-26T07:21:03;99359.84;;;11.44;100.00
8051;BME280;4068;42.158;24.732;2024-02-26T07:23:29;99383.00;;;11.72;100.00
8051;BME280;4068;42.158;24.732;2024-02-26T07:25:54;99361.31;;;11.57;100.00
8051;BME280;4068;42.158;24.732;2024-02-26T07:28:20;99404.44;;;11.81;100.00
8051;BME280;4068;42.158;24.732;2024-02-26T07:30:46;99401.09;;;11.88;100.00
8051;BME280;4068;42.158;24.732;2024-02-26T07:33:11;99400.47;;;11.96;100.00
8051;BME280;4068;42.158;24.732;2024-02-26T07:35:37;99391.41;;;12.08;100.00
8051;BME280;4068;42.158;24.732;2024-02-26T07:38:04;99398.84;;;12.24;100.00
8051;BME280;4068;42.158;24.732;2024-02-26T07:40:30;99394.94;;;12.29;100.00
8051;BME280;4068;42.158;24.732;2024-02-26T07:42:55;99404.03;;;12.36;100.00
8051;BME280;4068;42.158;24.732;2024-02-26T07:45:21;99368.06;;;12.22;100.00
8051;BME280;4068;42.158;24.732;2024-02-26T07:47:47;99396.19;;;12.34;100.00
8051;BME280;4068;42.158;24.732;2024-02-26T07:50:12;99381.19;;;12.23;100.00
8051;BME280;4068;42.158;24.732;2024-02-26T07:52:38;99372.25;;;12.24;100.00
8051;BME280;4068;42.158;24.732;2024-02-26T07:55:05;99376.72;;;12.34;100.00
8051;BME280;4068;42.158;24.732;2024-02-26T07:57:32;99397.59;;;12.58;100.00
8051;BME280;4068;42.158;24.732;2024-02-26T07:59:59;99395.22;;;12.45;100.00
8051;BME280;4068;42.158;24.732;2024-02-26T08:02:24;99397.44;;;12.50;100.00
8051;BME280;4068;42.158;24.732;2024-02-26T08:04:50;99404.03;;;12.55;100.00
8051;BME280;4068;42.158;24.732;2024-02-26T08:07:15;99384.59;;;12.65;100.00
8051;BME280;4068;42.158;24.732;2024-02-26T08:09:41;99386.53;;;12.72;100.00
8051;BME280;4068;42.158;24.732;2024-02-26T08:12:06;99401.81;;;12.80;100.00
8051;BME280;4068;42.158;24.732;2024-02-26T08:14:32;99400.53;;;12.84;100.00
8051;BME280;4068;42.158;24.732;2024-02-26T08:16:58;99393.78;;;13.00;100.00
8051;BME280;4068;42.158;24.732;2024-02-26T08:19:24;99398.13;;;13.01;100.00
8051;BME280;4068;42.158;24.732;2024-02-26T08:21:49;99381.03;;;13.03;100.00
8051;BME280;4068;42.158;24.732;2024-02-26T08:24:15;99365.72;;;13.15;100.00
8051;BME280;4068;42.158;24.732;2024-02-26T08:26:40;99393.69;;;13.49;100.00
8051;BME280;4068;42.158;24.732;2024-02-26T08:29:06;99388.72;;;13.63;100.00
8051;BME280;4068;42.158;24.732;2024-02-26T08:31:31;99391.03;;;13.76;100.00
8051;BME280;4068;42.158;24.732;2024-02-26T08:33:57;99394.25;;;13.80;100.00
8051;BME280;4068;42.158;24.732;2024-02-26T08:36:24;99402.06;;;13.91;100.00
8051;BME280;4068;42.158;24.732;2024-02-26T08:38:49;99384.22;;;13.92;100.00
8051;BME280;4068;42.158;24.732;2024-02-26T08:41:15;99382.13;;;13.95;100.00
8051;BME280;4068;42.158;24.732;2024-02-26T08:43:40;99392.41;;;14.08;100.00
8051;BME280;4068;42.158;24.732;2024-02-26T08:46:09;99388.84;;;14.18;100.00
8051;BME280;4068;42.158;24.732;2024-02-26T08:48:35;99387.34;;;14.33;99.24
8051;BME280;4068;42.158;24.732;2024-02-26T08:51:05;99383.81;;;14.50;97.23
8051;BME280;4068;42.158;24.732;2024-02-26T08:53:30;99381.19;;;14.69;96.78
8051;BME280;4068;42.158;24.732;2024-02-26T08:55:56;99355.00;;;14.36;95.76
8051;BME280;4068;42.158;24.732;2024-02-26T08:58:21;99378.88;;;14.56;96.85
8051;BME280;4068;42.158;24.732;2024-02-26T09:00:47;99385.38;;;14.71;96.38
8051;BME280;4068;42.158;24.732;2024-02-26T09:03:12;99381.78;;;14.80;95.56
8051;BME280;4068;42.158;24.732;2024-02-26T09:05:38;99376.72;;;14.95;95.13
8051;BME280;4068;42.158;24.732;2024-02-26T09:08:04;99371.31;;;15.13;94.01
8051;BME280;4068;42.158;24.732;2024-02-26T09:10:29;99344.09;;;15.10;93.55
8051;BME280;4068;42.158;24.732;2024-02-26T09:12:55;99378.38;;;15.49;92.64
8051;BME280;4068;42.158;24.732;2024-02-26T09:15:20;99367.34;;;15.44;92.95
8051;BME280;4068;42.158;24.732;2024-02-26T09:17:46;99373.78;;;15.33;93.14
8051;BME280;4068;42.158;24.732;2024-02-26T09:20:15;99368.69;;;15.48;91.99
8051;BME280;4068;42.158;24.732;2024-02-26T09:22:41;99372.13;;;15.66;91.62
8051;BME280;4068;42.158;24.732;2024-02-26T09:25:08;99371.16;;;15.76;90.53
8051;BME280;4068;42.158;24.732;2024-02-26T09:27:33;99334.13;;;15.54;90.22
8051;BME280;4068;42.158;24.732;2024-02-26T09:29:59;99372.44;;;15.98;90.29
8051;BME280;4068;42.158;24.732;2024-02-26T09:32:24;99374.91;;;15.91;90.29
8051;BME280;4068;42.158;24.732;2024-02-26T09:34:50;99362.09;;;16.11;88.90
8051;BME280;4068;42.158;24.732;2024-02-26T09:37:15;99357.75;;;16.18;87.96
8051;BME280;4068;42.158;24.732;2024-02-26T09:39:41;99349.25;;;16.23;86.54
8051;BME280;4068;42.158;24.732;2024-02-26T09:42:06;99365.66;;;16.28;84.87
8051;BME280;4068;42.158;24.732;2024-02-26T09:44:36;99362.16;;;16.28;85.22
8051;BME280;4068;42.158;24.732;2024-02-26T09:47:05;99361.28;;;16.19;87.32
8051;BME280;4068;42.158;24.732;2024-02-26T09:49:35;99357.13;;;16.41;87.58
8051;BME280;4068;42.158;24.732;2024-02-26T09:52:01;99321.31;;;16.26;85.04
8051;BME280;4068;42.158;24.732;2024-02-26T09:54:29;99315.06;;;15.84;89.11
8051;BME280;4068;42.158;24.732;2024-02-26T09:56:59;99350.44;;;16.20;87.86
8051;BME280;4068;42.158;24.732;2024-02-26T09:59:26;99329.50;;;16.08;88.05
8051;BME280;4068;42.158;24.732;2024-02-26T10:01:53;99341.34;;;15.97;89.30
8051;BME280;4068;42.158;24.732;2024-02-26T10:04:19;99324.78;;;15.93;90.34
8051;BME280;4068;42.158;24.732;2024-02-26T10:06:46;99328.31;;;16.02;90.39
8051;BME280;4068;42.158;24.732;2024-02-26T10:09:12;99326.84;;;16.08;90.71
8051;BME280;4068;42.158;24.732;2024-02-26T10:11:38;99306.75;;;16.03;92.23
8051;BME280;4068;42.158;24.732;2024-02-26T10:14:05;99312.16;;;16.36;90.28
8051;BME280;4068;42.158;24.732;2024-02-26T10:16:31;99307.09;;;16.09;91.29
8051;BME280;4068;42.158;24.732;2024-02-26T10:18:58;99313.97;;;16.36;90.71
8051;BME280;4068;42.158;24.732;2024-02-26T10:21:23;99284.19;;;16.55;89.04
8051;BME280;4068;42.158;24.732;2024-02-26T10:23:49;99299.25;;;16.65;88.13
8051;BME280;4068;42.158;24.732;2024-02-26T10:26:18;99272.84;;;16.62;87.87
8051;BME280;4068;42.158;24.732;2024-02-26T10:28:45;99301.91;;;16.98;87.06
8051;BME280;4068;42.158;24.732;2024-02-26T10:31:11;99296.19;;;17.09;86.47
8051;BME280;4068;42.158;24.732;2024-02-26T10:33:39;99294.69;;;16.98;84.73
8051;BME280;4068;42.158;24.732;2024-02-26T10:36:05;99295.88;;;16.96;85.16
8051;BME280;4068;42.158;24.732;2024-02-26T10:38:36;99279.81;;;16.96;86.21
8051;BME280;4068;42.158;24.732;2024-02-26T10:41:12;99265.03;;;17.16;85.49
8051;BME280;4068;42.158;24.732;2024-02-26T10:43:38;99279.97;;;17.50;83.53
8051;BME280;4068;42.158;24.732;2024-02-26T10:46:03;99277.38;;;17.65;82.86
8051;BME280;4068;42.158;24.732;2024-02-26T10:48:30;99278.44;;;17.87;81.68
8051;BME280;4068;42.158;24.732;2024-02-26T10:50:56;99275.00;;;18.02;79.72
8051;BME280;4068;42.158;24.732;2024-02-26T10:53:23;99270.09;;;18.05;78.64
8051;BME280;4068;42.158;24.732;2024-02-26T10:56:10;99272.94;;;18.27;75.24
8051;BME280;4068;42.158;24.732;2024-02-26T10:58:35;99261.88;;;18.07;73.67
8051;BME280;4068;42.158;24.732;2024-02-26T11:01:01;99261.28;;;17.88;70.59
8051;BME280;4068;42.158;24.732;2024-02-26T11:03:28;99256.44;;;17.29;70.91
8051;BME280;4068;42.158;24.732;2024-02-26T11:05:57;99249.41;;;17.20;71.56
8051;BME280;4068;42.158;24.732;2024-02-26T11:08:24;99238.75;;;17.12;72.46
8051;BME280;4068;42.158;24.732;2024-02-26T11:10:53;99250.19;;;17.37;70.16
8051;BME280;4068;42.158;24.732;2024-02-26T11:13:19;99244.44;;;17.48;68.98
8051;BME280;4068;42.158;24.732;2024-02-26T11:15:47;99237.91;;;17.51;69.28
8051;BME280;4068;42.158;24.732;2024-02-26T11:18:15;99242.16;;;17.37;69.87
8051;BME280;4068;42.158;24.732;2024-02-26T11:20:42;99233.94;;;17.38;71.08
8051;BME280;4068;42.158;24.732;2024-02-26T11:23:08;99230.28;;;17.63;69.46
8051;BME280;4068;42.158;24.732;2024-02-26T11:25:35;99236.69;;;17.85;66.86
8051;BME280;4068;42.158;24.732;2024-02-26T11:28:05;99232.19;;;18.08;66.26
8051;BME280;4068;42.158;24.732;2024-02-26T11:30:34;99224.63;;;18.27;65.83
8051;BME280;4068;42.158;24.732;2024-02-26T11:33:06;99226.06;;;18.38;64.94
8051;BME280;4068;42.158;24.732;2024-02-26T11:35:32;99213.19;;;18.33;65.31
8051;BME280;4068;42.158;24.732;2024-02-26T11:37:57;99221.31;;;18.63;64.59
8051;BME280;4068;42.158;24.732;2024-02-26T11:40:24;99214.88;;;18.49;64.18
8051;BME280;4068;42.158;24.732;2024-02-26T11:42:51;99210.81;;;18.68;64.36
8051;BME280;4068;42.158;24.732;2024-02-26T11:48:19;99206.63;;;18.89;62.79
8051;BME280;4068;42.158;24.732;2024-02-26T11:50:50;99210.88;;;18.98;62.34
8051;BME280;4068;42.158;24.732;2024-02-26T11:53:27;99204.56;;;18.91;63.19
8051;BME280;4068;42.158;24.732;2024-02-26T11:59:00;99179.44;;;18.69;62.60
8051;BME280;4068;42.158;24.732;2024-02-26T12:01:40;99196.66;;;18.59;62.30
8051;BME280;4068;42.158;24.732;2024-02-26T12:04:11;99173.41;;;18.37;62.91
8051;BME280;4068;42.158;24.732;2024-02-26T12:06:45;99199.78;;;18.48;62.47
8051;BME280;4068;42.158;24.732;2024-02-26T12:09:11;99172.56;;;18.21;63.83
8051;BME280;4068;42.158;24.732;2024-02-26T12:11:38;99199.34;;;18.44;63.36
8051;BME280;4068;42.158;24.732;2024-02-26T12:14:07;99191.28;;;18.44;63.44
8051;BME280;4068;42.158;24.732;2024-02-26T12:16:39;99179.81;;;18.36;64.00
8051;BME280;4068;42.158;24.732;2024-02-26T12:19:06;99183.22;;;18.44;64.01
8051;BME280;4068;42.158;24.732;2024-02-26T12:21:36;99182.78;;;18.56;64.11
8051;BME280;4068;42.158;24.732;2024-02-26T12:24:12;99179.81;;;18.66;63.00
8051;BME280;4068;42.158;24.732;2024-02-26T12:26:39;99174.72;;;18.86;63.07
8051;BME280;4068;42.158;24.732;2024-02-26T12:29:04;99175.63;;;18.78;62.59
8051;BME280;4068;42.158;24.732;2024-02-26T12:31:32;99177.69;;;18.76;63.41
8051;BME280;4068;42.158;24.732;2024-02-26T12:33:58;99145.66;;;18.89;62.81
8051;BME280;4068;42.158;24.732;2024-02-26T12:36:24;99171.16;;;19.30;61.01
8051;BME280;4068;42.158;24.732;2024-02-26T12:38:50;99164.63;;;19.39;60.24
8051;BME280;4068;42.158;24.732;2024-02-26T12:41:16;99169.53;;;18.99;61.43
8051;BME280;4068;42.158;24.732;2024-02-26T12:43:42;99141.47;;;18.87;62.11
8051;BME280;4068;42.158;24.732;2024-02-26T12:46:08;99172.31;;;18.76;62.43
8051;BME280;4068;42.158;24.732;2024-02-26T12:48:33;99160.00;;;18.82;62.58
8051;BME280;4068;42.158;24.732;2024-02-26T12:50:59;99160.09;;;19.03;62.33
8051;BME280;4068;42.158;24.732;2024-02-26T12:53:26;99156.44;;;19.11;62.15
8051;BME280;4068;42.158;24.732;2024-02-26T12:55:55;99151.16;;;19.33;60.97
8051;BME280;4068;42.158;24.732;2024-02-26T12:58:21;99150.94;;;19.34;60.39
8051;BME280;4068;42.158;24.732;2024-02-26T13:00:54;99156.56;;;19.39;60.41
8051;BME280;4068;42.158;24.732;2024-02-26T13:03:21;99160.81;;;19.12;61.21
8051;BME280;4068;42.158;24.732;2024-02-26T13:05:48;99126.44;;;19.07;61.01
8051;BME280;4068;42.158;24.732;2024-02-26T13:08:20;99151.00;;;19.41;60.49
8051;BME280;4068;42.158;24.732;2024-02-26T13:10:46;99154.94;;;19.60;58.80